createdAt,value
2018-08-10T00:00:50.955Z,995.15
2018-08-10T00:01:50.947Z,995.22
2018-08-10T00:02:50.943Z,995.22
2018-08-10T00:03:50.931Z,995.26
2018-08-10T00:04:50.928Z,995.26
2018-08-10T00:05:50.925Z,995.26
2018-08-10T00:06:50.922Z,995.30
2018-08-10T00:07:50.912Z,995.27
2018-08-10T00:08:50.906Z,995.28
2018-08-10T00:09:50.898Z,995.30
2018-08-10T00:10:50.895Z,995.29
2018-08-10T00:11:50.891Z,995.31
2018-08-10T00:12:50.883Z,995.31
2018-08-10T00:13:50.876Z,995.35
2018-08-10T00:14:50.870Z,995.34
2018-08-10T00:15:50.911Z,995.35
2018-08-10T00:16:50.867Z,995.38
2018-08-10T00:17:50.856Z,995.36
2018-08-10T00:18:50.851Z,995.35
2018-08-10T00:19:50.845Z,995.40
2018-08-10T00:20:50.840Z,995.45
2018-08-10T00:21:50.832Z,995.48
2018-08-10T00:22:50.827Z,995.45
2018-08-10T00:23:50.828Z,995.56
2018-08-10T00:24:50.816Z,995.56
2018-08-10T00:25:50.813Z,995.55
2018-08-10T00:26:50.809Z,995.55
2018-08-10T00:27:50.802Z,995.51
2018-08-10T00:28:50.796Z,995.55
2018-08-10T00:29:50.790Z,995.63
2018-08-10T00:30:50.786Z,995.63
2018-08-10T00:31:50.779Z,995.70
2018-08-10T00:32:50.781Z,995.67
2018-08-10T00:33:50.768Z,995.69
2018-08-10T00:34:50.763Z,995.74
2018-08-10T00:35:50.763Z,995.76
2018-08-10T00:36:50.754Z,995.81
2018-08-10T00:37:50.746Z,995.82
2018-08-10T00:38:50.740Z,995.82
2018-08-10T00:39:50.734Z,995.93
2018-08-10T00:40:50.728Z,995.97
2018-08-10T00:41:50.730Z,995.95
2018-08-10T00:42:50.718Z,995.97
2018-08-10T00:43:50.716Z,995.99
2018-08-10T00:44:50.707Z,995.95
2018-08-10T00:45:50.702Z,995.99
2018-08-10T00:46:50.698Z,996.06
2018-08-10T00:47:50.691Z,996.05
2018-08-10T00:48:50.685Z,996.06
2018-08-10T00:49:50.684Z,996.02
2018-08-10T00:50:50.681Z,996.00
2018-08-10T00:51:50.675Z,996.09
2018-08-10T00:52:50.668Z,996.07
2018-08-10T00:53:50.656Z,996.03
2018-08-10T00:54:50.654Z,996.08
2018-08-10T00:55:50.650Z,996.10
2018-08-10T00:56:50.643Z,996.09
2018-08-10T00:57:50.637Z,996.06
2018-08-10T00:58:50.632Z,996.14
2018-08-10T00:59:50.643Z,996.11
2018-08-10T01:00:50.622Z,996.08
2018-08-10T01:01:50.616Z,996.12
2018-08-10T01:02:50.612Z,996.14
2018-08-10T01:03:50.611Z,996.12
2018-08-10T01:04:50.599Z,996.17
2018-08-10T01:05:50.596Z,996.14
2018-08-10T01:06:50.587Z,996.16
2018-08-10T01:07:50.587Z,996.26
2018-08-10T01:08:50.577Z,996.26
2018-08-10T01:09:50.574Z,996.26
2018-08-10T01:10:50.564Z,996.29
2018-08-10T01:11:50.565Z,996.33
2018-08-10T01:12:50.561Z,996.37
2018-08-10T01:13:50.549Z,996.35
2018-08-10T01:14:50.544Z,996.39
2018-08-10T01:15:50.538Z,996.39
2018-08-10T01:16:50.547Z,996.41
2018-08-10T01:17:50.526Z,996.44
2018-08-10T01:18:50.522Z,996.47
2018-08-10T01:19:50.516Z,996.51
2018-08-10T01:20:50.518Z,996.50
2018-08-10T01:21:50.507Z,996.50
2018-08-10T01:22:50.499Z,996.53
2018-08-10T01:23:50.494Z,996.55
2018-08-10T01:24:50.491Z,996.60
2018-08-10T01:25:50.549Z,996.60
2018-08-10T01:26:50.482Z,996.65
2018-08-10T01:27:50.471Z,996.68
2018-08-10T01:28:50.554Z,996.71
2018-08-10T01:29:50.464Z,996.75
2018-08-10T01:30:50.459Z,996.72
2018-08-10T01:31:50.486Z,996.82
2018-08-10T01:32:50.446Z,996.80
2018-08-10T01:33:50.494Z,996.81
2018-08-10T01:34:50.435Z,996.85
2018-08-10T01:35:50.429Z,996.85
2018-08-10T01:36:50.422Z,996.93
2018-08-10T01:37:50.409Z,996.88
2018-08-10T01:38:50.411Z,996.92
2018-08-10T01:39:50.407Z,996.89
2018-08-10T01:40:50.401Z,997.03
2018-08-10T01:41:50.399Z,997.07
2018-08-10T01:42:50.394Z,997.13
2018-08-10T01:43:50.388Z,997.11
2018-08-10T01:44:50.380Z,997.11
2018-08-10T01:45:50.368Z,997.14
2018-08-10T01:46:50.376Z,997.11
2018-08-10T01:47:50.360Z,997.15
2018-08-10T01:48:50.363Z,997.12
2018-08-10T01:49:50.356Z,997.15
2018-08-10T01:50:50.346Z,997.16
2018-08-10T01:51:50.341Z,997.20
2018-08-10T01:52:50.336Z,997.18
2018-08-10T01:53:50.328Z,997.19
2018-08-10T01:54:50.323Z,997.19
2018-08-10T01:55:50.316Z,997.27
2018-08-10T01:56:50.314Z,997.24
2018-08-10T01:57:50.307Z,997.25
2018-08-10T01:58:50.301Z,997.26
2018-08-10T01:59:50.299Z,997.29
2018-08-10T02:00:50.291Z,997.31
2018-08-10T02:01:50.284Z,997.39
2018-08-10T02:02:50.281Z,997.43
2018-08-10T02:03:50.272Z,997.41
2018-08-10T02:04:50.266Z,997.43
2018-08-10T02:05:50.264Z,997.39
2018-08-10T02:06:50.261Z,997.38
2018-08-10T02:07:50.250Z,997.45
2018-08-10T02:08:50.247Z,997.39
2018-08-10T02:09:50.239Z,997.36
2018-08-10T02:10:50.235Z,997.36
2018-08-10T02:11:50.228Z,997.35
2018-08-10T02:12:50.224Z,997.37
2018-08-10T02:13:50.219Z,997.37
2018-08-10T02:14:50.212Z,997.40
2018-08-10T02:15:50.213Z,997.37
2018-08-10T02:16:50.205Z,997.37
2018-08-10T02:17:50.195Z,997.34
2018-08-10T02:18:50.193Z,997.37
2018-08-10T02:19:50.187Z,997.44
2018-08-10T02:20:50.178Z,997.43
2018-08-10T02:21:50.171Z,997.47
2018-08-10T02:22:50.171Z,997.41
2018-08-10T02:23:50.167Z,997.45
2018-08-10T02:24:50.191Z,997.45
2018-08-10T02:25:50.151Z,997.49
2018-08-10T02:26:50.146Z,997.50
2018-08-10T02:27:50.139Z,997.53
2018-08-10T02:28:50.134Z,997.52
2018-08-10T02:29:50.129Z,997.55
2018-08-10T02:30:50.124Z,997.49
2018-08-10T02:31:50.119Z,997.55
2018-08-10T02:32:50.112Z,997.56
2018-08-10T02:33:50.110Z,997.53
2018-08-10T02:34:50.101Z,997.55
2018-08-10T02:35:50.097Z,997.53
2018-08-10T02:36:50.094Z,997.50
2018-08-10T02:37:50.085Z,997.50
2018-08-10T02:38:50.086Z,997.48
2018-08-10T02:39:50.075Z,997.55
2018-08-10T02:40:50.074Z,997.48
2018-08-10T02:41:50.063Z,997.54
2018-08-10T02:42:50.064Z,997.56
2018-08-10T02:43:50.055Z,997.54
2018-08-10T02:44:50.082Z,997.58
2018-08-10T02:45:50.042Z,997.60
2018-08-10T02:46:50.064Z,997.63
2018-08-10T02:47:50.036Z,997.60
2018-08-10T02:48:50.027Z,997.56
2018-08-10T02:49:50.021Z,997.62
2018-08-10T02:50:50.016Z,997.62
2018-08-10T02:51:50.011Z,997.63
2018-08-10T02:52:50.006Z,997.72
2018-08-10T02:53:50.010Z,997.72
2018-08-10T02:54:49.999Z,997.82
2018-08-10T02:55:49.989Z,997.84
2018-08-10T02:56:49.984Z,997.82
2018-08-10T02:57:49.978Z,997.81
2018-08-10T02:58:49.975Z,997.78
2018-08-10T02:59:49.967Z,997.83
2018-08-10T03:00:49.960Z,997.82
2018-08-10T03:01:49.957Z,997.85
2018-08-10T03:02:49.949Z,997.86
2018-08-10T03:03:49.947Z,997.87
2018-08-10T03:04:49.946Z,997.91
2018-08-10T03:05:49.943Z,997.96
2018-08-10T03:06:49.931Z,997.93
2018-08-10T03:07:49.926Z,997.95
2018-08-10T03:08:49.925Z,997.88
2018-08-10T03:09:49.917Z,997.92
2018-08-10T03:10:49.909Z,997.87
2018-08-10T03:11:49.905Z,997.88
2018-08-10T03:12:49.899Z,997.88
2018-08-10T03:13:49.893Z,997.87
2018-08-10T03:14:49.901Z,997.81
2018-08-10T03:15:49.888Z,997.81
2018-08-10T03:16:49.877Z,997.82
2018-08-10T03:17:49.867Z,997.82
2018-08-10T03:18:49.868Z,997.79
2018-08-10T03:19:49.883Z,997.82
2018-08-10T03:20:49.862Z,997.77
2018-08-10T03:21:49.853Z,997.79
2018-08-10T03:22:49.848Z,997.85
2018-08-10T03:23:49.847Z,997.85
2018-08-10T03:24:49.841Z,997.85
2018-08-10T03:25:49.831Z,997.79
2018-08-10T03:26:49.827Z,997.80
2018-08-10T03:27:49.828Z,997.81
2018-08-10T03:28:49.837Z,997.86
2018-08-10T03:29:49.809Z,997.87
2018-08-10T03:30:49.806Z,997.91
2018-08-10T03:31:49.798Z,997.89
2018-08-10T03:32:49.801Z,997.91
2018-08-10T03:33:49.789Z,997.95
2018-08-10T03:34:49.785Z,997.98
2018-08-10T03:35:49.783Z,998.00
2018-08-10T03:36:49.784Z,998.00
2018-08-10T03:37:49.772Z,998.05
2018-08-10T03:38:49.808Z,998.10
2018-08-10T03:39:49.751Z,998.17
2018-08-10T03:40:49.751Z,998.19
2018-08-10T03:41:49.748Z,998.16
2018-08-10T03:42:49.739Z,998.23
2018-08-10T03:43:52.577Z,998.27
2018-08-10T03:44:49.732Z,998.29
2018-08-10T03:45:49.725Z,998.33
2018-08-10T03:46:49.723Z,998.34
2018-08-10T03:47:49.718Z,998.36
2018-08-10T03:48:49.710Z,998.39
2018-08-10T03:49:49.763Z,998.38
2018-08-10T03:50:49.697Z,998.41
2018-08-10T03:51:49.693Z,998.40
2018-08-10T03:52:49.687Z,998.41
2018-08-10T03:53:49.690Z,998.44
2018-08-10T03:54:49.677Z,998.48
2018-08-10T03:55:49.671Z,998.51
2018-08-10T03:56:49.663Z,998.56
2018-08-10T03:57:49.662Z,998.55
2018-08-10T03:58:49.653Z,998.64
2018-08-10T03:59:49.651Z,998.64
2018-08-10T04:00:49.639Z,998.63
2018-08-10T04:01:49.638Z,998.65
2018-08-10T04:02:49.642Z,998.64
2018-08-10T04:03:49.623Z,998.68
2018-08-10T04:04:49.616Z,998.66
2018-08-10T04:05:49.610Z,998.68
2018-08-10T04:06:49.608Z,998.65
2018-08-10T04:07:49.598Z,998.68
2018-08-10T04:08:49.592Z,998.71
2018-08-10T04:09:49.595Z,998.74
2018-08-10T04:10:49.582Z,998.74
2018-08-10T04:11:49.574Z,998.74
2018-08-10T04:12:49.569Z,998.73
2018-08-10T04:13:49.563Z,998.77
2018-08-10T04:14:49.554Z,998.75
2018-08-10T04:15:49.549Z,998.79
2018-08-10T04:16:49.541Z,998.79
2018-08-10T04:17:49.544Z,998.82
2018-08-10T04:18:49.531Z,998.82
2018-08-10T04:19:49.527Z,998.79
2018-08-10T04:20:49.520Z,998.79
2018-08-10T04:21:49.511Z,998.88
2018-08-10T04:22:49.506Z,998.88
2018-08-10T04:23:49.505Z,998.91
2018-08-10T04:24:49.494Z,998.90
2018-08-10T04:25:49.489Z,998.93
2018-08-10T04:26:49.485Z,998.94
2018-08-10T04:27:49.477Z,998.95
2018-08-10T04:28:49.467Z,998.95
2018-08-10T04:29:49.465Z,998.96
2018-08-10T04:30:49.457Z,998.98
2018-08-10T04:31:49.453Z,998.98
2018-08-10T04:32:49.450Z,998.95
2018-08-10T04:33:49.440Z,999.02
2018-08-10T04:34:49.434Z,999.03
2018-08-10T04:35:49.428Z,999.02
2018-08-10T04:36:49.419Z,999.04
2018-08-10T04:37:49.415Z,999.04
2018-08-10T04:38:49.409Z,999.08
2018-08-10T04:39:49.404Z,999.07
2018-08-10T04:40:49.398Z,999.08
2018-08-10T04:41:49.395Z,999.10
2018-08-10T04:42:49.384Z,999.13
2018-08-10T04:43:49.380Z,999.10
2018-08-10T04:44:49.373Z,999.11
2018-08-10T04:45:49.365Z,999.18
2018-08-10T04:46:49.358Z,999.18
2018-08-10T04:47:49.352Z,999.20
2018-08-10T04:48:49.356Z,999.21
2018-08-10T04:49:49.344Z,999.21
2018-08-10T04:50:49.336Z,999.25
2018-08-10T04:51:49.332Z,999.25
2018-08-10T04:52:49.324Z,999.31
2018-08-10T04:53:49.319Z,999.33
2018-08-10T04:54:49.310Z,999.33
2018-08-10T04:55:49.309Z,999.32
2018-08-10T04:56:49.305Z,999.41
2018-08-10T04:57:49.296Z,999.37
2018-08-10T04:58:49.289Z,999.41
2018-08-10T04:59:49.282Z,999.45
2018-08-10T05:00:49.275Z,999.43
2018-08-10T05:01:49.268Z,999.46
2018-08-10T05:02:49.261Z,999.46
2018-08-10T05:03:49.343Z,999.55
2018-08-10T05:04:49.259Z,999.48
2018-08-10T05:05:49.245Z,999.55
2018-08-10T05:06:49.238Z,999.54
2018-08-10T05:07:49.234Z,999.57
2018-08-10T05:08:49.226Z,999.61
2018-08-10T05:09:49.252Z,999.62
2018-08-10T05:10:49.215Z,999.61
2018-08-10T05:11:49.213Z,999.59
2018-08-10T05:12:49.201Z,999.62
2018-08-10T05:13:49.199Z,999.61
2018-08-10T05:14:49.190Z,999.63
2018-08-10T05:15:49.251Z,999.67
2018-08-10T05:16:49.179Z,999.69
2018-08-10T05:17:49.173Z,999.65
2018-08-10T05:18:49.173Z,999.69
2018-08-10T05:19:49.160Z,999.74
2018-08-10T05:20:49.172Z,999.72
2018-08-10T05:21:49.146Z,999.74
2018-08-10T05:22:49.148Z,999.76
2018-08-10T05:23:49.152Z,999.80
2018-08-10T05:24:49.133Z,999.79
2018-08-10T05:25:49.152Z,999.85
2018-08-10T05:26:49.116Z,999.80
2018-08-10T05:27:49.120Z,999.84
2018-08-10T05:28:49.104Z,999.85
2018-08-10T05:29:49.104Z,999.88
2018-08-10T05:30:49.093Z,999.89
2018-08-10T05:31:49.088Z,999.91
2018-08-10T05:32:49.080Z,999.92
2018-08-10T05:33:49.075Z,999.88
2018-08-10T05:34:49.125Z,999.90
2018-08-10T05:35:49.063Z,999.93
2018-08-10T05:36:49.057Z,999.91
2018-08-10T05:37:49.057Z,999.96
2018-08-10T05:38:49.042Z,999.93
2018-08-10T05:39:49.040Z,999.92
2018-08-10T05:40:49.033Z,999.96
2018-08-10T05:41:49.025Z,999.95
2018-08-10T05:42:49.020Z,999.92
2018-08-10T05:43:49.019Z,999.98
2018-08-10T05:44:49.010Z,999.99
2018-08-10T05:45:49.002Z,1000.01
2018-08-10T05:46:49.047Z,999.94
2018-08-10T05:47:48.991Z,999.93
2018-08-10T05:48:48.984Z,999.95
2018-08-10T05:49:48.976Z,1000.03
2018-08-10T05:50:48.991Z,1000.01
2018-08-10T05:51:48.971Z,1000.01
2018-08-10T05:52:48.959Z,1000.04
2018-08-10T05:53:48.953Z,1000.04
2018-08-10T05:54:48.947Z,1000.07
2018-08-10T05:55:48.941Z,1000.11
2018-08-10T05:56:48.936Z,1000.15
2018-08-10T05:57:48.930Z,1000.16
2018-08-10T05:58:48.923Z,1000.11
2018-08-10T05:59:48.928Z,1000.16
2018-08-10T06:00:49.027Z,1000.16
2018-08-10T06:01:48.906Z,1000.16
2018-08-10T06:02:48.901Z,1000.21
2018-08-10T06:03:48.965Z,1000.23
2018-08-10T06:04:48.888Z,1000.31
2018-08-10T06:05:48.896Z,1000.32
2018-08-10T06:06:48.874Z,1000.30
2018-08-10T06:07:48.876Z,1000.31
2018-08-10T06:08:48.865Z,1000.35
2018-08-10T06:09:48.880Z,1000.37
2018-08-10T06:10:48.856Z,1000.39
2018-08-10T06:11:48.846Z,1000.39
2018-08-10T06:12:48.860Z,1000.39
2018-08-10T06:13:48.834Z,1000.42
2018-08-10T06:14:48.827Z,1000.41
2018-08-10T06:15:48.825Z,1000.39
2018-08-10T06:16:48.825Z,1000.48
2018-08-10T06:17:48.816Z,1000.40
2018-08-10T06:18:48.804Z,1000.41
2018-08-10T06:19:48.833Z,1000.45
2018-08-10T06:20:48.793Z,1000.46
2018-08-10T06:21:48.787Z,1000.45
2018-08-10T06:22:48.833Z,1000.51
2018-08-10T06:23:48.781Z,1000.48
2018-08-10T06:24:48.769Z,1000.48
2018-08-10T06:25:48.764Z,1000.53
2018-08-10T06:26:48.759Z,1000.57
2018-08-10T06:27:48.817Z,1000.57
2018-08-10T06:28:48.752Z,1000.60
2018-08-10T06:29:48.741Z,1000.55
2018-08-10T06:30:48.734Z,1000.63
2018-08-10T06:31:48.729Z,1000.64
2018-08-10T06:32:48.721Z,1000.67
2018-08-10T06:33:48.800Z,1000.62
2018-08-10T06:34:48.712Z,1000.60
2018-08-10T06:35:48.705Z,1000.58
2018-08-10T06:36:48.700Z,1000.62
2018-08-10T06:37:48.691Z,1000.58
2018-08-10T06:38:48.687Z,1000.60
2018-08-10T06:39:48.726Z,1000.67
2018-08-10T06:40:48.681Z,1000.69
2018-08-10T06:41:48.670Z,1000.72
2018-08-10T06:42:48.664Z,1000.75
2018-08-10T06:43:48.658Z,1000.70
2018-08-10T06:44:48.720Z,1000.70
2018-08-10T06:45:48.653Z,1000.72
2018-08-10T06:46:48.642Z,1000.68
2018-08-10T06:47:48.636Z,1000.68
2018-08-10T06:48:48.633Z,1000.66
2018-08-10T06:49:48.633Z,1000.67
2018-08-10T06:50:48.620Z,1000.64
2018-08-10T06:51:48.612Z,1000.53
2018-08-10T06:52:48.602Z,1000.59
2018-08-10T06:53:48.594Z,1000.57
2018-08-10T06:54:48.596Z,1000.56
2018-08-10T06:55:48.629Z,1000.57
2018-08-10T06:56:48.616Z,1000.57
2018-08-10T06:57:48.578Z,1000.61
2018-08-10T06:58:48.579Z,1000.58
2018-08-10T06:59:48.567Z,1000.61
2018-08-10T07:00:48.594Z,1000.62
2018-08-10T07:01:48.555Z,1000.60
2018-08-10T07:02:48.549Z,1000.57
2018-08-10T07:03:48.545Z,1000.57
2018-08-10T07:04:48.536Z,1000.51
2018-08-10T07:05:48.531Z,1000.57
2018-08-10T07:06:48.528Z,1000.54
2018-08-10T07:07:48.528Z,1000.51
2018-08-10T07:08:48.516Z,1000.53
2018-08-10T07:09:48.512Z,1000.55
2018-08-10T07:10:48.505Z,1000.50
2018-08-10T07:11:48.498Z,1000.50
2018-08-10T07:12:48.497Z,1000.53
2018-08-10T07:13:48.497Z,1000.54
2018-08-10T07:14:48.482Z,1000.56
2018-08-10T07:15:48.476Z,1000.59
2018-08-10T07:16:48.474Z,1000.56
2018-08-10T07:17:48.464Z,1000.58
2018-08-10T07:18:48.459Z,1000.60
2018-08-10T07:19:48.454Z,1000.59
2018-08-10T07:20:48.446Z,1000.69
2018-08-10T07:21:48.446Z,1000.68
2018-08-10T07:22:48.437Z,1000.71
2018-08-10T07:23:48.434Z,1000.71
2018-08-10T07:24:48.425Z,1000.70
2018-08-10T07:25:48.420Z,1000.70
2018-08-10T07:26:48.417Z,1000.70
2018-08-10T07:27:48.413Z,1000.72
2018-08-10T07:28:48.402Z,1000.73
2018-08-10T07:29:48.399Z,1000.71
2018-08-10T07:30:48.400Z,1000.72
2018-08-10T07:31:48.388Z,1000.75
2018-08-10T07:32:48.380Z,1000.71
2018-08-10T07:33:48.377Z,1000.78
2018-08-10T07:34:48.373Z,1000.76
2018-08-10T07:35:48.369Z,1000.72
2018-08-10T07:36:48.363Z,1000.77
2018-08-10T07:37:48.355Z,1000.68
2018-08-10T07:38:48.350Z,1000.75
2018-08-10T07:39:48.350Z,1000.77
2018-08-10T07:40:48.339Z,1000.72
2018-08-10T07:41:48.333Z,1000.75
2018-08-10T07:42:48.330Z,1000.71
2018-08-10T07:43:48.318Z,1000.73
2018-08-10T07:44:48.322Z,1000.73
2018-08-10T07:45:48.310Z,1000.71
2018-08-10T07:46:48.306Z,1000.72
2018-08-10T07:47:48.301Z,1000.73
2018-08-10T07:48:48.305Z,1000.71
2018-08-10T07:49:48.290Z,1000.71
2018-08-10T07:50:48.286Z,1000.71
2018-08-10T07:51:48.281Z,1000.70
2018-08-10T07:52:48.275Z,1000.69
2018-08-10T07:53:48.269Z,1000.70
2018-08-10T07:54:48.265Z,1000.67
2018-08-10T07:55:48.259Z,1000.67
2018-08-10T07:56:48.253Z,1000.64
2018-08-10T07:57:48.256Z,1000.67
2018-08-10T07:58:48.245Z,1000.62
2018-08-10T07:59:48.245Z,1000.63
2018-08-10T08:00:48.226Z,1000.65
2018-08-10T08:01:48.229Z,1000.67
2018-08-10T08:02:48.230Z,1000.64
2018-08-10T08:03:48.220Z,1000.61
2018-08-10T08:04:48.212Z,1000.63
2018-08-10T08:05:48.215Z,1000.64
2018-08-10T08:06:48.205Z,1000.69
2018-08-10T08:07:48.201Z,1000.71
2018-08-10T08:08:48.192Z,1000.70
2018-08-10T08:09:48.186Z,1000.71
2018-08-10T08:10:48.183Z,1000.71
2018-08-10T08:11:48.177Z,1000.78
2018-08-10T08:12:48.173Z,1000.81
2018-08-10T08:13:48.221Z,1000.80
2018-08-10T08:14:48.164Z,1000.78
2018-08-10T08:15:48.160Z,1000.79
2018-08-10T08:16:48.152Z,1000.83
2018-08-10T08:17:48.198Z,1000.81
2018-08-10T08:18:48.158Z,1000.86
2018-08-10T08:19:48.175Z,1000.81
2018-08-10T08:20:48.157Z,1000.86
2018-08-10T08:21:48.127Z,1000.86
2018-08-10T08:22:48.122Z,1000.87
2018-08-10T08:23:48.123Z,1000.92
2018-08-10T08:24:48.113Z,1000.91
2018-08-10T08:25:48.108Z,1000.88
2018-08-10T08:26:48.103Z,1000.88
2018-08-10T08:27:48.100Z,1000.88
2018-08-10T08:28:48.096Z,1000.91
2018-08-10T08:29:48.088Z,1000.85
2018-08-10T08:30:48.087Z,1000.83
2018-08-10T08:31:48.079Z,1000.92
2018-08-10T08:32:48.074Z,1000.88
2018-08-10T08:33:48.071Z,1000.91
2018-08-10T08:34:48.096Z,1000.91
2018-08-10T08:35:48.176Z,1000.89
2018-08-10T08:36:48.069Z,1000.92
2018-08-10T08:37:48.051Z,1000.92
2018-08-10T08:38:48.045Z,1000.90
2018-08-10T08:39:48.050Z,1000.93
2018-08-10T08:40:48.102Z,1000.97
2018-08-10T08:41:48.031Z,1001.00
2018-08-10T08:42:48.027Z,1000.97
2018-08-10T08:43:48.024Z,1000.92
2018-08-10T08:44:48.019Z,1000.92
2018-08-10T08:45:48.222Z,1000.91
2018-08-10T08:46:48.010Z,1000.97
2018-08-10T08:47:48.004Z,1000.94
2018-08-10T08:48:47.997Z,1000.90
2018-08-10T08:49:47.994Z,1000.89
2018-08-10T08:50:47.990Z,1000.86
2018-08-10T08:51:47.999Z,1000.88
2018-08-10T08:52:47.980Z,1000.87
2018-08-10T08:53:47.977Z,1000.93
2018-08-10T08:54:47.974Z,1000.87
2018-08-10T08:55:47.973Z,1000.90
2018-08-10T08:56:47.961Z,1000.90
2018-08-10T08:57:47.961Z,1000.86
2018-08-10T08:58:47.953Z,1000.94
2018-08-10T08:59:47.950Z,1000.91
2018-08-10T09:00:47.943Z,1000.87
2018-08-10T09:01:47.938Z,1000.83
2018-08-10T09:02:47.934Z,1000.80
2018-08-10T09:03:47.930Z,1000.83
2018-08-10T09:04:47.927Z,1000.87
2018-08-10T09:05:47.924Z,1000.89
2018-08-10T09:06:47.915Z,1000.85
2018-08-10T09:07:47.942Z,1000.87
2018-08-10T09:08:47.905Z,1000.83
2018-08-10T09:09:47.904Z,1000.84
2018-08-10T09:10:47.896Z,1000.84
2018-08-10T09:11:47.893Z,1000.83
2018-08-10T09:12:47.887Z,1000.87
2018-08-10T09:13:47.883Z,1000.83
2018-08-10T09:14:47.887Z,1000.92
2018-08-10T09:15:47.879Z,1000.88
2018-08-10T09:16:47.869Z,1000.92
2018-08-10T09:17:47.868Z,1000.88
2018-08-10T09:18:47.862Z,1000.87
2018-08-10T09:19:47.855Z,1000.92
2018-08-10T09:20:47.854Z,1000.86
2018-08-10T09:21:47.842Z,1000.85
2018-08-10T09:22:47.840Z,1000.92
2018-08-10T09:23:47.836Z,1000.94
2018-08-10T09:24:47.839Z,1000.93
2018-08-10T09:25:47.833Z,1000.90
2018-08-10T09:26:47.867Z,1000.88
2018-08-10T09:27:47.820Z,1000.85
2018-08-10T09:28:47.812Z,1000.85
2018-08-10T09:29:47.811Z,1000.79
2018-08-10T09:30:47.811Z,1000.84
2018-08-10T09:31:47.800Z,1000.84
2018-08-10T09:32:47.795Z,1000.84
2018-08-10T09:33:47.792Z,1000.80
2018-08-10T09:34:47.786Z,1000.82
2018-08-10T09:35:47.787Z,1000.83
2018-08-10T09:36:47.795Z,1000.84
2018-08-10T09:37:47.780Z,1000.83
2018-08-10T09:38:47.778Z,1000.79
2018-08-10T09:39:47.764Z,1000.82
2018-08-10T09:40:47.760Z,1000.79
2018-08-10T09:41:47.754Z,1000.83
2018-08-10T09:42:47.749Z,1000.82
2018-08-10T09:43:47.743Z,1000.77
2018-08-10T09:44:47.739Z,1000.74
2018-08-10T09:45:47.738Z,1000.75
2018-08-10T09:46:47.732Z,1000.79
2018-08-10T09:47:47.728Z,1000.80
2018-08-10T09:48:47.722Z,1000.80
2018-08-10T09:49:47.718Z,1000.81
2018-08-10T09:50:47.716Z,1000.80
2018-08-10T09:51:47.771Z,1000.82
2018-08-10T09:52:47.706Z,1000.82
2018-08-10T09:53:47.700Z,1000.82
2018-08-10T09:54:47.695Z,1000.81
2018-08-10T09:55:47.694Z,1000.84
2018-08-10T09:56:47.691Z,1000.85
2018-08-10T09:57:47.687Z,1000.87
2018-08-10T09:58:47.682Z,1000.86
2018-08-10T09:59:47.732Z,1000.85
2018-08-10T10:00:47.669Z,1000.83
2018-08-10T10:01:47.665Z,1000.88
2018-08-10T10:02:47.657Z,1000.89
2018-08-10T10:03:47.657Z,1000.88
2018-08-10T10:04:47.650Z,1000.88
2018-08-10T10:05:47.647Z,1000.89
2018-08-10T10:06:47.645Z,1000.87
2018-08-10T10:07:47.649Z,1000.89
2018-08-10T10:08:47.636Z,1000.81
2018-08-10T10:09:47.632Z,1000.86
2018-08-10T10:10:47.626Z,1000.85
2018-08-10T10:11:47.621Z,1000.86
2018-08-10T10:12:47.616Z,1000.90
2018-08-10T10:13:47.613Z,1000.85
2018-08-10T10:14:47.609Z,1000.84
2018-08-10T10:15:47.604Z,1000.81
2018-08-10T10:16:47.599Z,1000.77
2018-08-10T10:17:47.596Z,1000.80
2018-08-10T10:18:47.593Z,1000.75
2018-08-10T10:19:47.588Z,1000.72
2018-08-10T10:20:47.581Z,1000.76
2018-08-10T10:21:47.576Z,1000.75
2018-08-10T10:22:47.575Z,1000.75
2018-08-10T10:23:47.570Z,1000.70
2018-08-10T10:24:47.568Z,1000.75
2018-08-10T10:25:47.560Z,1000.78
2018-08-10T10:26:47.555Z,1000.73
2018-08-10T10:27:47.552Z,1000.78
2018-08-10T10:28:47.550Z,1000.74
2018-08-10T10:29:47.557Z,1000.76
2018-08-10T10:30:47.544Z,1000.76
2018-08-10T10:31:47.541Z,1000.79
2018-08-10T10:32:47.662Z,1000.83
2018-08-10T10:33:47.527Z,1000.82
2018-08-10T10:34:47.522Z,1000.82
2018-08-10T10:35:47.520Z,1000.85
2018-08-10T10:36:47.514Z,1000.81
2018-08-10T10:37:47.509Z,1000.84
2018-08-10T10:38:47.508Z,1000.81
2018-08-10T10:39:47.507Z,1000.82
2018-08-10T10:40:47.499Z,1000.85
2018-08-10T10:41:47.501Z,1000.82
2018-08-10T10:42:47.525Z,1000.80
2018-08-10T10:43:47.484Z,1000.81
2018-08-10T10:44:47.483Z,1000.86
2018-08-10T10:45:47.477Z,1000.84
2018-08-10T10:46:47.473Z,1000.86
2018-08-10T10:47:47.484Z,1000.87
2018-08-10T10:48:47.462Z,1000.85
2018-08-10T10:49:47.460Z,1000.86
2018-08-10T10:50:47.475Z,1000.85
2018-08-10T10:51:47.453Z,1000.81
2018-08-10T10:52:47.444Z,1000.82
2018-08-10T10:53:47.444Z,1000.78
2018-08-10T10:54:47.440Z,1000.77
2018-08-10T10:55:47.432Z,1000.76
2018-08-10T10:56:47.525Z,1000.77
2018-08-10T10:57:47.431Z,1000.77
2018-08-10T10:58:47.419Z,1000.76
2018-08-10T10:59:47.416Z,1000.79
2018-08-10T11:00:47.409Z,1000.74
2018-08-10T11:01:47.409Z,1000.79
2018-08-10T11:02:47.405Z,1000.86
2018-08-10T11:03:47.406Z,1000.81
2018-08-10T11:04:47.391Z,1000.82
2018-08-10T11:05:47.391Z,1000.84
2018-08-10T11:06:47.385Z,1000.82
2018-08-10T11:07:47.380Z,1000.76
2018-08-10T11:08:47.373Z,1000.77
2018-08-10T11:09:47.369Z,1000.72
2018-08-10T11:10:47.370Z,1000.73
2018-08-10T11:11:47.367Z,1000.73
2018-08-10T11:12:47.358Z,1000.72
2018-08-10T11:13:47.353Z,1000.71
2018-08-10T11:14:47.352Z,1000.70
2018-08-10T11:15:47.345Z,1000.71
2018-08-10T11:16:47.342Z,1000.72
2018-08-10T11:17:47.336Z,1000.67
2018-08-10T11:18:47.334Z,1000.71
2018-08-10T11:19:47.332Z,1000.64
2018-08-10T11:20:47.325Z,1000.59
2018-08-10T11:21:47.319Z,1000.56
2018-08-10T11:22:47.319Z,1000.51
2018-08-10T11:23:47.314Z,1000.54
2018-08-10T11:24:47.307Z,1000.52
2018-08-10T11:25:47.485Z,1000.60
2018-08-10T11:26:47.302Z,1000.60
2018-08-10T11:27:47.295Z,1000.55
2018-08-10T11:28:47.290Z,1000.52
2018-08-10T11:29:47.289Z,1000.47
2018-08-10T11:30:47.282Z,1000.51
2018-08-10T11:31:47.278Z,1000.51
2018-08-10T11:32:47.275Z,1000.54
2018-08-10T11:33:47.274Z,1000.55
2018-08-10T11:34:47.271Z,1000.55
2018-08-10T11:35:47.263Z,1000.56
2018-08-10T11:36:47.262Z,1000.54
2018-08-10T11:37:47.257Z,1000.47
2018-08-10T11:38:47.250Z,1000.53
2018-08-10T11:39:47.247Z,1000.50
2018-08-10T11:40:47.242Z,1000.50
2018-08-10T11:41:47.241Z,1000.46
2018-08-10T11:42:47.235Z,1000.49
2018-08-10T11:43:47.229Z,1000.53
2018-08-10T11:44:47.288Z,1000.52
2018-08-10T11:45:47.226Z,1000.48
2018-08-10T11:46:47.218Z,1000.43
2018-08-10T11:47:47.215Z,1000.46
2018-08-10T11:48:47.205Z,1000.44
2018-08-10T11:49:47.204Z,1000.46
2018-08-10T11:50:47.203Z,1000.43
2018-08-10T11:51:47.196Z,1000.42
2018-08-10T11:52:47.194Z,1000.38
2018-08-10T11:53:47.187Z,1000.46
2018-08-10T11:54:47.180Z,1000.38
2018-08-10T11:55:47.178Z,1000.41
2018-08-10T11:56:47.172Z,1000.37
2018-08-10T11:57:47.171Z,1000.32
2018-08-10T11:58:47.166Z,1000.34
2018-08-10T11:59:47.161Z,1000.31
2018-08-10T12:00:47.159Z,1000.31
2018-08-10T12:01:47.174Z,1000.34
2018-08-10T12:02:47.157Z,1000.37
2018-08-10T12:03:47.155Z,1000.28
2018-08-10T12:04:47.143Z,1000.20
2018-08-10T12:05:47.190Z,1000.31
2018-08-10T12:06:47.130Z,1000.30
2018-08-10T12:07:47.137Z,1000.22
2018-08-10T12:08:47.125Z,1000.28
2018-08-10T12:09:47.126Z,1000.26
2018-08-10T12:10:47.117Z,1000.31
2018-08-10T12:11:47.114Z,1000.31
2018-08-10T12:12:47.117Z,1000.27
2018-08-10T12:13:47.103Z,1000.26
2018-08-10T12:14:47.097Z,1000.24
2018-08-10T12:15:47.096Z,1000.22
2018-08-10T12:16:47.103Z,1000.28